sensor_id;sensor_type;location;lat;lon;timestamp;P1;durP1;ratioP1;P2;durP2;ratioP2
43457;SDS011;29046;54.184;18.680;2024-02-21T00:02:13;11.40;;;2.15;;
43457;SDS011;29046;54.184;18.680;2024-02-21T00:04:43;18.98;;;3.97;;
43457;SDS011;29046;54.184;18.680;2024-02-21T00:07:11;18.60;;;3.60;;
43457;SDS011;29046;54.184;18.680;2024-02-21T00:09:38;21.35;;;3.33;;
43457;SDS011;29046;54.184;18.680;2024-02-21T00:12:06;21.02;;;3.80;;
43457;SDS011;29046;54.184;18.680;2024-02-21T00:14:34;13.60;;;3.47;;
43457;SDS011;29046;54.184;18.680;2024-02-21T00:17:02;15.90;;;4.45;;
43457;SDS011;29046;54.184;18.680;2024-02-21T00:19:29;16.23;;;4.40;;
43457;SDS011;29046;54.184;18.680;2024-02-21T00:21:57;24.27;;;4.72;;
43457;SDS011;29046;54.184;18.680;2024-02-21T00:24:25;24.92;;;5.47;;
43457;SDS011;29046;54.184;18.680;2024-02-21T00:26:53;18.48;;;4.05;;
43457;SDS011;29046;54.184;18.680;2024-02-21T00:29:21;25.40;;;4.88;;
43457;SDS011;29046;54.184;18.680;2024-02-21T00:31:49;18.38;;;4.03;;
43457;SDS011;29046;54.184;18.680;2024-02-21T00:34:17;18.33;;;4.53;;
43457;SDS011;29046;54.184;18.680;2024-02-21T00:36:45;15.70;;;4.53;;
43457;SDS011;29046;54.184;18.680;2024-02-21T00:39:13;23.73;;;4.30;;
43457;SDS011;29046;54.184;18.680;2024-02-21T00:41:40;21.70;;;5.38;;
43457;SDS011;29046;54.184;18.680;2024-02-21T00:44:08;18.10;;;4.35;;
43457;SDS011;29046;54.184;18.680;2024-02-21T00:46:37;26.42;;;6.10;;
43457;SDS011;29046;54.184;18.680;2024-02-21T00:49:05;24.25;;;4.07;;
43457;SDS011;29046;54.184;18.680;2024-02-21T00:51:34;27.98;;;5.57;;
43457;SDS011;29046;54.184;18.680;2024-02-21T00:54:01;20.20;;;4.03;;
43457;SDS011;29046;54.184;18.680;2024-02-21T00:56:29;22.45;;;4.63;;
43457;SDS011;29046;54.184;18.680;2024-02-21T00:58:57;19.13;;;4.38;;
43457;SDS011;29046;54.184;18.680;2024-02-21T01:01:25;17.63;;;3.80;;
43457;SDS011;29046;54.184;18.680;2024-02-21T01:03:53;26.85;;;4.65;;
43457;SDS011;29046;54.184;18.680;2024-02-21T01:06:21;16.08;;;4.32;;
43457;SDS011;29046;54.184;18.680;2024-02-21T01:08:50;28.48;;;4.00;;
43457;SDS011;29046;54.184;18.680;2024-02-21T01:11:17;15.70;;;3.45;;
43457;SDS011;29046;54.184;18.680;2024-02-21T01:13:45;20.88;;;4.57;;
43457;SDS011;29046;54.184;18.680;2024-02-21T01:16:13;21.08;;;3.58;;
43457;SDS011;29046;54.184;18.680;2024-02-21T01:18:40;13.27;;;2.72;;
43457;SDS011;29046;54.184;18.680;2024-02-21T01:21:08;20.85;;;4.47;;
43457;SDS011;29046;54.184;18.680;2024-02-21T01:23:36;24.60;;;3.90;;
43457;SDS011;29046;54.184;18.680;2024-02-21T01:26:04;19.02;;;3.60;;
43457;SDS011;29046;54.184;18.680;2024-02-21T01:28:34;19.10;;;4.38;;
43457;SDS011;29046;54.184;18.680;2024-02-21T01:31:02;16.35;;;4.53;;
43457;SDS011;29046;54.184;18.680;2024-02-21T01:33:30;15.95;;;2.78;;
43457;SDS011;29046;54.184;18.680;2024-02-21T01:36:02;16.45;;;3.25;;
43457;SDS011;29046;54.184;18.680;2024-02-21T01:38:29;13.13;;;3.47;;
43457;SDS011;29046;54.184;18.680;2024-02-21T01:40:59;11.55;;;3.00;;
43457;SDS011;29046;54.184;18.680;2024-02-21T01:43:26;15.82;;;3.95;;
43457;SDS011;29046;54.184;18.680;2024-02-21T01:45:55;22.67;;;5.10;;
43457;SDS011;29046;54.184;18.680;2024-02-21T01:48:22;27.08;;;4.53;;
43457;SDS011;29046;54.184;18.680;2024-02-21T01:50:51;26.90;;;4.38;;
43457;SDS011;29046;54.184;18.680;2024-02-21T01:53:27;18.65;;;3.90;;
43457;SDS011;29046;54.184;18.680;2024-02-21T01:55:57;19.40;;;3.95;;
43457;SDS011;29046;54.184;18.680;2024-02-21T01:58:24;21.17;;;3.55;;
43457;SDS011;29046;54.184;18.680;2024-02-21T02:00:52;23.80;;;3.38;;
43457;SDS011;29046;54.184;18.680;2024-02-21T02:03:20;12.52;;;3.17;;
43457;SDS011;29046;54.184;18.680;2024-02-21T02:05:49;22.83;;;4.40;;
43457;SDS011;29046;54.184;18.680;2024-02-21T02:08:17;16.05;;;3.30;;
43457;SDS011;29046;54.184;18.680;2024-02-21T02:10:45;23.33;;;3.92;;
43457;SDS011;29046;54.184;18.680;2024-02-21T02:13:13;13.98;;;2.05;;
43457;SDS011;29046;54.184;18.680;2024-02-21T02:15:42;13.13;;;3.00;;
43457;SDS011;29046;54.184;18.680;2024-02-21T02:18:10;14.25;;;3.45;;
43457;SDS011;29046;54.184;18.680;2024-02-21T02:20:39;24.70;;;3.85;;
43457;SDS011;29046;54.184;18.680;2024-02-21T02:23:07;20.58;;;4.38;;
43457;SDS011;29046;54.184;18.680;2024-02-21T02:25:36;22.60;;;6.00;;
43457;SDS011;29046;54.184;18.680;2024-02-21T02:28:04;15.43;;;4.43;;
43457;SDS011;29046;54.184;18.680;2024-02-21T02:30:35;14.77;;;3.13;;
43457;SDS011;29046;54.184;18.680;2024-02-21T02:33:03;12.18;;;4.22;;
43457;SDS011;29046;54.184;18.680;2024-02-21T02:35:31;21.13;;;4.43;;
43457;SDS011;29046;54.184;18.680;2024-02-21T02:37:59;22.48;;;6.00;;
43457;SDS011;29046;54.184;18.680;2024-02-21T02:40:27;20.40;;;5.38;;
43457;SDS011;29046;54.184;18.680;2024-02-21T02:42:54;19.88;;;4.45;;
43457;SDS011;29046;54.184;18.680;2024-02-21T02:45:23;19.70;;;3.90;;
43457;SDS011;29046;54.184;18.680;2024-02-21T02:47:53;18.55;;;3.95;;
43457;SDS011;29046;54.184;18.680;2024-02-21T02:50:21;18.90;;;3.67;;
43457;SDS011;29046;54.184;18.680;2024-02-21T02:52:48;23.48;;;4.55;;
43457;SDS011;29046;54.184;18.680;2024-02-21T02:55:16;21.33;;;5.18;;
43457;SDS011;29046;54.184;18.680;2024-02-21T02:57:44;28.05;;;5.40;;
43457;SDS011;29046;54.184;18.680;2024-02-21T03:00:13;21.13;;;4.68;;
43457;SDS011;29046;54.184;18.680;2024-02-21T03:02:41;20.15;;;4.28;;
43457;SDS011;29046;54.184;18.680;2024-02-21T03:05:13;24.45;;;4.07;;
43457;SDS011;29046;54.184;18.680;2024-02-21T03:07:42;18.65;;;3.63;;
43457;SDS011;29046;54.184;18.680;2024-02-21T03:10:10;22.90;;;4.88;;
43457;SDS011;29046;54.184;18.680;2024-02-21T03:12:38;19.50;;;4.15;;
43457;SDS011;29046;54.184;18.680;2024-02-21T03:15:06;27.30;;;3.65;;
43457;SDS011;29046;54.184;18.680;2024-02-21T03:17:34;20.05;;;4.10;;
43457;SDS011;29046;54.184;18.680;2024-02-21T03:20:02;19.40;;;4.05;;
43457;SDS011;29046;54.184;18.680;2024-02-21T03:22:39;27.83;;;5.70;;
43457;SDS011;29046;54.184;18.680;2024-02-21T03:25:10;20.15;;;4.00;;
43457;SDS011;29046;54.184;18.680;2024-02-21T03:27:39;28.25;;;4.97;;
43457;SDS011;29046;54.184;18.680;2024-02-21T03:30:07;30.05;;;5.07;;
43457;SDS011;29046;54.184;18.680;2024-02-21T03:32:35;24.90;;;5.80;;
43457;SDS011;29046;54.184;18.680;2024-02-21T03:35:03;22.20;;;5.63;;
43457;SDS011;29046;54.184;18.680;2024-02-21T03:37:30;26.15;;;5.60;;
43457;SDS011;29046;54.184;18.680;2024-02-21T03:39:58;22.90;;;5.28;;
43457;SDS011;29046;54.184;18.680;2024-02-21T03:42:25;27.15;;;4.90;;
43457;SDS011;29046;54.184;18.680;2024-02-21T03:44:57;18.08;;;4.38;;
43457;SDS011;29046;54.184;18.680;2024-02-21T03:47:25;31.17;;;6.22;;
43457;SDS011;29046;54.184;18.680;2024-02-21T03:49:53;25.33;;;5.28;;
43457;SDS011;29046;54.184;18.680;2024-02-21T03:52:20;20.70;;;5.38;;
43457;SDS011;29046;54.184;18.680;2024-02-21T03:54:48;20.98;;;4.85;;
43457;SDS011;29046;54.184;18.680;2024-02-21T03:57:16;17.77;;;4.63;;
43457;SDS011;29046;54.184;18.680;2024-02-21T03:59:44;19.23;;;4.30;;
43457;SDS011;29046;54.184;18.680;2024-02-21T04:02:11;32.00;;;6.15;;
43457;SDS011;29046;54.184;18.680;2024-02-21T04:04:42;21.50;;;4.88;;
43457;SDS011;29046;54.184;18.680;2024-02-21T04:07:13;25.60;;;4.78;;
43457;SDS011;29046;54.184;18.680;2024-02-21T04:09:41;19.10;;;4.47;;
43457;SDS011;29046;54.184;18.680;2024-02-21T04:12:08;26.60;;;4.97;;
43457;SDS011;29046;54.184;18.680;2024-02-21T04:14:36;21.30;;;5.15;;
43457;SDS011;29046;54.184;18.680;2024-02-21T04:17:04;24.98;;;5.38;;
43457;SDS011;29046;54.184;18.680;2024-02-21T04:19:32;21.52;;;5.22;;
43457;SDS011;29046;54.184;18.680;2024-02-21T04:22:00;19.73;;;5.32;;
43457;SDS011;29046;54.184;18.680;2024-02-21T04:24:28;19.50;;;5.35;;
43457;SDS011;29046;54.184;18.680;2024-02-21T04:26:55;21.15;;;4.78;;
43457;SDS011;29046;54.184;18.680;2024-02-21T04:29:23;23.17;;;5.72;;
43457;SDS011;29046;54.184;18.680;2024-02-21T04:31:51;27.88;;;5.90;;
43457;SDS011;29046;54.184;18.680;2024-02-21T04:34:19;18.75;;;6.13;;
43457;SDS011;29046;54.184;18.680;2024-02-21T04:36:46;19.27;;;5.38;;
43457;SDS011;29046;54.184;18.680;2024-02-21T04:39:14;27.88;;;6.32;;
43457;SDS011;29046;54.184;18.680;2024-02-21T04:41:42;21.58;;;6.68;;
43457;SDS011;29046;54.184;18.680;2024-02-21T04:44:09;29.45;;;7.47;;
43457;SDS011;29046;54.184;18.680;2024-02-21T04:46:37;27.52;;;6.90;;
43457;SDS011;29046;54.184;18.680;2024-02-21T04:49:04;28.77;;;7.32;;
43457;SDS011;29046;54.184;18.680;2024-02-21T04:51:32;23.98;;;7.05;;
43457;SDS011;29046;54.184;18.680;2024-02-21T04:54:02;25.15;;;7.95;;
43457;SDS011;29046;54.184;18.680;2024-02-21T04:56:30;26.88;;;8.07;;
43457;SDS011;29046;54.184;18.680;2024-02-21T04:58:57;26.10;;;7.88;;
43457;SDS011;29046;54.184;18.680;2024-02-21T05:01:25;23.42;;;8.15;;
43457;SDS011;29046;54.184;18.680;2024-02-21T05:03:53;22.40;;;7.40;;
43457;SDS011;29046;54.184;18.680;2024-02-21T05:06:20;27.77;;;7.75;;
43457;SDS011;29046;54.184;18.680;2024-02-21T05:08:49;23.73;;;7.93;;
43457;SDS011;29046;54.184;18.680;2024-02-21T05:11:16;23.23;;;7.95;;
43457;SDS011;29046;54.184;18.680;2024-02-21T05:13:44;30.05;;;8.48;;
43457;SDS011;29046;54.184;18.680;2024-02-21T05:16:12;21.25;;;7.53;;
43457;SDS011;29046;54.184;18.680;2024-02-21T05:18:40;16.83;;;7.85;;
43457;SDS011;29046;54.184;18.680;2024-02-21T05:21:09;25.13;;;9.57;;
43457;SDS011;29046;54.184;18.680;2024-02-21T05:23:37;39.78;;;11.70;;
43457;SDS011;29046;54.184;18.680;2024-02-21T05:26:06;34.33;;;9.68;;
43457;SDS011;29046;54.184;18.680;2024-02-21T05:28:34;30.27;;;9.52;;
43457;SDS011;29046;54.184;18.680;2024-02-21T05:31:01;31.95;;;11.50;;
43457;SDS011;29046;54.184;18.680;2024-02-21T05:33:29;28.58;;;8.05;;
43457;SDS011;29046;54.184;18.680;2024-02-21T05:35:57;30.58;;;9.57;;
43457;SDS011;29046;54.184;18.680;2024-02-21T05:38:25;21.50;;;7.82;;
43457;SDS011;29046;54.184;18.680;2024-02-21T05:40:52;27.55;;;8.77;;
43457;SDS011;29046;54.184;18.680;2024-02-21T05:43:20;27.65;;;9.98;;
43457;SDS011;29046;54.184;18.680;2024-02-21T05:45:48;23.33;;;9.10;;
43457;SDS011;29046;54.184;18.680;2024-02-21T05:48:15;27.10;;;9.88;;
43457;SDS011;29046;54.184;18.680;2024-02-21T05:50:43;28.60;;;10.70;;
43457;SDS011;29046;54.184;18.680;2024-02-21T05:53:11;25.77;;;10.98;;
43457;SDS011;29046;54.184;18.680;2024-02-21T05:55:38;33.63;;;11.57;;
43457;SDS011;29046;54.184;18.680;2024-02-21T05:58:07;23.23;;;9.90;;
43457;SDS011;29046;54.184;18.680;2024-02-21T06:00:38;23.63;;;9.77;;
43457;SDS011;29046;54.184;18.680;2024-02-21T06:03:06;21.23;;;9.02;;
43457;SDS011;29046;54.184;18.680;2024-02-21T06:05:37;17.17;;;8.73;;
43457;SDS011;29046;54.184;18.680;2024-02-21T06:08:05;16.52;;;7.82;;
43457;SDS011;29046;54.184;18.680;2024-02-21T06:10:33;21.85;;;8.27;;
43457;SDS011;29046;54.184;18.680;2024-02-21T06:13:01;17.48;;;8.40;;
43457;SDS011;29046;54.184;18.680;2024-02-21T06:15:29;22.42;;;8.30;;
43457;SDS011;29046;54.184;18.680;2024-02-21T06:17:56;18.02;;;5.53;;
43457;SDS011;29046;54.184;18.680;2024-02-21T06:20:24;17.73;;;6.30;;
43457;SDS011;29046;54.184;18.680;2024-02-21T06:22:52;21.10;;;8.30;;
43457;SDS011;29046;54.184;18.680;2024-02-21T06:25:20;19.35;;;5.80;;
43457;SDS011;29046;54.184;18.680;2024-02-21T06:27:48;8.55;;;4.72;;
43457;SDS011;29046;54.184;18.680;2024-02-21T06:30:15;15.48;;;6.47;;
43457;SDS011;29046;54.184;18.680;2024-02-21T06:32:43;14.70;;;5.65;;
43457;SDS011;29046;54.184;18.680;2024-02-21T06:35:10;16.80;;;5.72;;
43457;SDS011;29046;54.184;18.680;2024-02-21T06:37:38;22.00;;;7.45;;
43457;SDS011;29046;54.184;18.680;2024-02-21T06:40:06;13.98;;;5.95;;
43457;SDS011;29046;54.184;18.680;2024-02-21T06:42:34;14.18;;;3.10;;
43457;SDS011;29046;54.184;18.680;2024-02-21T06:45:02;15.48;;;4.97;;
43457;SDS011;29046;54.184;18.680;2024-02-21T06:47:29;18.23;;;6.85;;
43457;SDS011;29046;54.184;18.680;2024-02-21T06:49:57;12.95;;;5.07;;
43457;SDS011;29046;54.184;18.680;2024-02-21T06:52:25;17.73;;;5.43;;
43457;SDS011;29046;54.184;18.680;2024-02-21T06:54:53;12.18;;;4.70;;
43457;SDS011;29046;54.184;18.680;2024-02-21T06:57:21;11.93;;;5.35;;
43457;SDS011;29046;54.184;18.680;2024-02-21T06:59:48;16.48;;;6.18;;
43457;SDS011;29046;54.184;18.680;2024-02-21T07:02:16;15.13;;;7.15;;
43457;SDS011;29046;54.184;18.680;2024-02-21T07:04:44;17.00;;;5.10;;
43457;SDS011;29046;54.184;18.680;2024-02-21T07:07:12;15.82;;;6.30;;
43457;SDS011;29046;54.184;18.680;2024-02-21T07:09:39;17.63;;;5.85;;
43457;SDS011;29046;54.184;18.680;2024-02-21T07:12:07;10.20;;;5.30;;
43457;SDS011;29046;54.184;18.680;2024-02-21T07:14:38;19.02;;;5.97;;
43457;SDS011;29046;54.184;18.680;2024-02-21T07:17:06;14.90;;;5.90;;
43457;SDS011;29046;54.184;18.680;2024-02-21T07:19:33;11.90;;;3.95;;
43457;SDS011;29046;54.184;18.680;2024-02-21T07:22:02;15.90;;;5.32;;
43457;SDS011;29046;54.184;18.680;2024-02-21T07:24:30;18.33;;;6.82;;
43457;SDS011;29046;54.184;18.680;2024-02-21T07:26:58;16.73;;;5.38;;
43457;SDS011;29046;54.184;18.680;2024-02-21T07:29:31;10.60;;;4.60;;
43457;SDS011;29046;54.184;18.680;2024-02-21T07:31:58;18.67;;;6.05;;
43457;SDS011;29046;54.184;18.680;2024-02-21T07:34:26;19.10;;;5.25;;
43457;SDS011;29046;54.184;18.680;2024-02-21T07:36:55;14.82;;;6.03;;
43457;SDS011;29046;54.184;18.680;2024-02-21T07:39:23;21.45;;;6.38;;
43457;SDS011;29046;54.184;18.680;2024-02-21T07:41:51;16.75;;;6.13;;
43457;SDS011;29046;54.184;18.680;2024-02-21T07:44:18;15.77;;;5.68;;
43457;SDS011;29046;54.184;18.680;2024-02-21T07:46:46;21.92;;;7.72;;
43457;SDS011;29046;54.184;18.680;2024-02-21T07:49:13;18.70;;;7.00;;
43457;SDS011;29046;54.184;18.680;2024-02-21T07:51:41;18.98;;;7.05;;
43457;SDS011;29046;54.184;18.680;2024-02-21T07:54:09;21.60;;;7.82;;
43457;SDS011;29046;54.184;18.680;2024-02-21T07:59:09;24.23;;;7.43;;
43457;SDS011;29046;54.184;18.680;2024-02-21T08:01:37;14.10;;;5.93;;
43457;SDS011;29046;54.184;18.680;2024-02-21T08:04:05;22.17;;;7.07;;
43457;SDS011;29046;54.184;18.680;2024-02-21T08:06:33;12.48;;;6.45;;
43457;SDS011;29046;54.184;18.680;2024-02-21T08:09:01;18.05;;;7.38;;
43457;SDS011;29046;54.184;18.680;2024-02-21T08:11:29;21.50;;;8.27;;
43457;SDS011;29046;54.184;18.680;2024-02-21T08:13:57;16.08;;;7.22;;
43457;SDS011;29046;54.184;18.680;2024-02-21T08:16:37;16.98;;;6.47;;
43457;SDS011;29046;54.184;18.680;2024-02-21T08:19:11;17.00;;;6.32;;
43457;SDS011;29046;54.184;18.680;2024-02-21T08:21:39;17.10;;;6.57;;
43457;SDS011;29046;54.184;18.680;2024-02-21T08:24:13;25.85;;;9.93;;
43457;SDS011;29046;54.184;18.680;2024-02-21T08:26:44;21.05;;;7.88;;
43457;SDS011;29046;54.184;18.680;2024-02-21T08:29:44;17.40;;;8.18;;
43457;SDS011;29046;54.184;18.680;2024-02-21T08:32:19;19.55;;;7.90;;
43457;SDS011;29046;54.184;18.680;2024-02-21T08:34:46;21.75;;;8.13;;
43457;SDS011;29046;54.184;18.680;2024-02-21T08:37:15;19.27;;;7.95;;
43457;SDS011;29046;54.184;18.680;2024-02-21T08:39:47;18.58;;;8.68;;
43457;SDS011;29046;54.184;18.680;2024-02-21T08:42:15;19.75;;;8.23;;
43457;SDS011;29046;54.184;18.680;2024-02-21T08:44:42;24.60;;;9.65;;
43457;SDS011;29046;54.184;18.680;2024-02-21T08:47:10;19.52;;;7.63;;
43457;SDS011;29046;54.184;18.680;2024-02-21T08:49:37;16.52;;;5.05;;
43457;SDS011;29046;54.184;18.680;2024-02-21T08:52:05;20.50;;;8.75;;
43457;SDS011;29046;54.184;18.680;2024-02-21T08:54:33;19.60;;;8.95;;
43457;SDS011;29046;54.184;18.680;2024-02-21T08:57:01;17.20;;;9.35;;
43457;SDS011;29046;54.184;18.680;2024-02-21T08:59:29;16.05;;;8.27;;
43457;SDS011;29046;54.184;18.680;2024-02-21T09:01:57;15.07;;;8.00;;
43457;SDS011;29046;54.184;18.680;2024-02-21T09:04:25;10.05;;;5.07;;
43457;SDS011;29046;54.184;18.680;2024-02-21T09:06:53;12.65;;;5.53;;
43457;SDS011;29046;54.184;18.680;2024-02-21T09:09:21;21.92;;;9.00;;
43457;SDS011;29046;54.184;18.680;2024-02-21T09:11:48;19.85;;;9.15;;
43457;SDS011;29046;54.184;18.680;2024-02-21T09:14:16;16.27;;;8.50;;
43457;SDS011;29046;54.184;18.680;2024-02-21T09:16:43;8.93;;;4.43;;
43457;SDS011;29046;54.184;18.680;2024-02-21T09:19:11;13.70;;;6.13;;
43457;SDS011;29046;54.184;18.680;2024-02-21T09:21:39;14.90;;;8.52;;
43457;SDS011;29046;54.184;18.680;2024-02-21T09:24:06;15.57;;;8.35;;
43457;SDS011;29046;54.184;18.680;2024-02-21T09:26:34;18.25;;;8.38;;
43457;SDS011;29046;54.184;18.680;2024-02-21T09:29:02;23.55;;;8.40;;
43457;SDS011;29046;54.184;18.680;2024-02-21T09:31:30;12.18;;;7.90;;
43457;SDS011;29046;54.184;18.680;2024-02-21T09:33:58;20.90;;;9.68;;
43457;SDS011;29046;54.184;18.680;2024-02-21T09:36:26;21.55;;;11.57;;
43457;SDS011;29046;54.184;18.680;2024-02-21T09:38:54;16.05;;;8.13;;
43457;SDS011;29046;54.184;18.680;2024-02-21T09:41:25;19.58;;;10.20;;
43457;SDS011;29046;54.184;18.680;2024-02-21T09:43:54;24.52;;;11.82;;
43457;SDS011;29046;54.184;18.680;2024-02-21T09:49:31;16.67;;;9.30;;
43457;SDS011;29046;54.184;18.680;2024-02-21T09:52:04;21.63;;;9.98;;
43457;SDS011;29046;54.184;18.680;2024-02-21T09:54:33;19.40;;;11.10;;
43457;SDS011;29046;54.184;18.680;2024-02-21T09:57:01;21.17;;;9.68;;
43457;SDS011;29046;54.184;18.680;2024-02-21T09:59:30;23.67;;;10.85;;
43457;SDS011;29046;54.184;18.680;2024-02-21T10:01:58;20.95;;;10.20;;
43457;SDS011;29046;54.184;18.680;2024-02-21T10:04:27;21.13;;;10.27;;
43457;SDS011;29046;54.184;18.680;2024-02-21T10:06:56;18.67;;;10.88;;
43457;SDS011;29046;54.184;18.680;2024-02-21T10:09:24;19.55;;;9.70;;
43457;SDS011;29046;54.184;18.680;2024-02-21T10:11:56;21.95;;;9.25;;
43457;SDS011;29046;54.184;18.680;2024-02-21T10:14:23;19.83;;;9.85;;
43457;SDS011;29046;54.184;18.680;2024-02-21T10:16:57;21.52;;;10.57;;
43457;SDS011;29046;54.184;18.680;2024-02-21T10:19:29;20.08;;;11.40;;
43457;SDS011;29046;54.184;18.680;2024-02-21T10:22:01;16.08;;;7.70;;
43457;SDS011;29046;54.184;18.680;2024-02-21T10:24:31;18.60;;;7.95;;
43457;SDS011;29046;54.184;18.680;2024-02-21T10:27:02;11.68;;;5.10;;
43457;SDS011;29046;54.184;18.680;2024-02-21T10:29:31;24.38;;;7.88;;
43457;SDS011;29046;54.184;18.680;2024-02-21T10:32:09;13.40;;;6.68;;
43457;SDS011;29046;54.184;18.680;2024-02-21T10:34:38;15.25;;;6.32;;
43457;SDS011;29046;54.184;18.680;2024-02-21T10:37:07;8.35;;;3.38;;
43457;SDS011;29046;54.184;18.680;2024-02-21T10:39:36;10.68;;;5.93;;
43457;SDS011;29046;54.184;18.680;2024-02-21T10:42:04;15.30;;;7.22;;
43457;SDS011;29046;54.184;18.680;2024-02-21T10:44:33;9.98;;;4.60;;
43457;SDS011;29046;54.184;18.680;2024-02-21T10:47:01;8.55;;;3.67;;
43457;SDS011;29046;54.184;18.680;2024-02-21T10:49:33;16.05;;;5.82;;
43457;SDS011;29046;54.184;18.680;2024-02-21T10:56:59;12.85;;;5.90;;
43457;SDS011;29046;54.184;18.680;2024-02-21T10:59:27;9.75;;;4.78;;
43457;SDS011;29046;54.184;18.680;2024-02-21T11:01:57;11.45;;;5.30;;
43457;SDS011;29046;54.184;18.680;2024-02-21T11:04:25;4.07;;;2.60;;
43457;SDS011;29046;54.184;18.680;2024-02-21T11:06:54;5.93;;;2.65;;
43457;SDS011;29046;54.184;18.680;2024-02-21T11:09:29;11.40;;;4.95;;
43457;SDS011;29046;54.184;18.680;2024-02-21T11:12:04;13.10;;;5.78;;
43457;SDS011;29046;54.184;18.680;2024-02-21T11:14:32;9.38;;;4.03;;
43457;SDS011;29046;54.184;18.680;2024-02-21T11:17:14;9.80;;;4.95;;
43457;SDS011;29046;54.184;18.680;2024-02-21T11:19:42;12.05;;;5.53;;
43457;SDS011;29046;54.184;18.680;2024-02-21T11:22:14;12.63;;;6.00;;
43457;SDS011;29046;54.184;18.680;2024-02-21T11:24:43;7.68;;;3.35;;
43457;SDS011;29046;54.184;18.680;2024-02-21T11:27:21;7.57;;;3.63;;
43457;SDS011;29046;54.184;18.680;2024-02-21T11:29:55;6.00;;;2.17;;
43457;SDS011;29046;54.184;18.680;2024-02-21T11:32:24;6.07;;;2.63;;
43457;SDS011;29046;54.184;18.680;2024-02-21T11:34:59;9.55;;;3.58;;
43457;SDS011;29046;54.184;18.680;2024-02-21T11:37:32;7.47;;;4.00;;
43457;SDS011;29046;54.184;18.680;2024-02-21T11:40:01;12.13;;;4.85;;
43457;SDS011;29046;54.184;18.680;2024-02-21T11:42:30;11.13;;;5.20;;
43457;SDS011;29046;54.184;18.680;2024-02-21T11:44:59;8.07;;;4.32;;
43457;SDS011;29046;54.184;18.680;2024-02-21T11:47:30;7.60;;;3.05;;
43457;SDS011;29046;54.184;18.680;2024-02-21T11:49:58;9.77;;;5.30;;
43457;SDS011;29046;54.184;18.680;2024-02-21T11:52:26;10.02;;;3.92;;
43457;SDS011;29046;54.184;18.680;2024-02-21T11:54:55;9.27;;;4.78;;
43457;SDS011;29046;54.184;18.680;2024-02-21T11:57:32;4.63;;;2.95;;
43457;SDS011;29046;54.184;18.680;2024-02-21T12:00:12;7.90;;;3.40;;
43457;SDS011;29046;54.184;18.680;2024-02-21T12:02:41;6.18;;;3.60;;
43457;SDS011;29046;54.184;18.680;2024-02-21T12:05:08;9.52;;;5.15;;
43457;SDS011;29046;54.184;18.680;2024-02-21T12:07:37;8.90;;;3.80;;
43457;SDS011;29046;54.184;18.680;2024-02-21T12:10:10;15.05;;;5.13;;
43457;SDS011;29046;54.184;18.680;2024-02-21T12:12:38;10.55;;;1.90;;
43457;SDS011;29046;54.184;18.680;2024-02-21T12:15:06;3.70;;;2.38;;
43457;SDS011;29046;54.184;18.680;2024-02-21T12:17:35;10.93;;;4.22;;
43457;SDS011;29046;54.184;18.680;2024-02-21T12:20:03;4.18;;;2.78;;
43457;SDS011;29046;54.184;18.680;2024-02-21T12:22:39;11.55;;;4.35;;
43457;SDS011;29046;54.184;18.680;2024-02-21T12:27:46;10.38;;;3.85;;
43457;SDS011;29046;54.184;18.680;2024-02-21T12:30:15;6.25;;;2.95;;
43457;SDS011;29046;54.184;18.680;2024-02-21T12:32:44;4.25;;;2.35;;
43457;SDS011;29046;54.184;18.680;2024-02-21T12:35:11;8.88;;;4.80;;
43457;SDS011;29046;54.184;18.680;2024-02-21T12:37:39;3.90;;;1.88;;
43457;SDS011;29046;54.184;18.680;2024-02-21T12:40:08;8.80;;;3.53;;
43457;SDS011;29046;54.184;18.680;2024-02-21T12:42:37;6.78;;;2.90;;
43457;SDS011;29046;54.184;18.680;2024-02-21T12:45:05;3.30;;;1.67;;
43457;SDS011;29046;54.184;18.680;2024-02-21T12:47:33;5.03;;;2.28;;
43457;SDS011;29046;54.184;18.680;2024-02-21T12:50:01;2.22;;;1.52;;
43457;SDS011;29046;54.184;18.680;2024-02-21T12:52:30;5.70;;;1.85;;
43457;SDS011;29046;54.184;18.680;2024-02-21T12:54:58;3.72;;;2.50;;
43457;SDS011;29046;54.184;18.680;2024-02-21T12:57:26;6.35;;;3.00;;
43457;SDS011;29046;54.184;18.680;2024-02-21T12:59:54;4.90;;;2.58;;
43457;SDS011;29046;54.184;18.680;2024-02-21T13:02:22;5.35;;;3.00;;
43457;SDS011;29046;54.184;18.680;2024-02-21T13:04:49;3.92;;;2.67;;
43457;SDS011;29046;54.184;18.680;2024-02-21T13:07:18;3.65;;;2.13;;
43457;SDS011;29046;54.184;18.680;2024-02-21T13:09:45;3.05;;;1.95;;
43457;SDS011;29046;54.184;18.680;2024-02-21T13:12:13;4.53;;;2.25;;
43457;SDS011;29046;54.184;18.680;2024-02-21T13:14:42;3.75;;;2.47;;
43457;SDS011;29046;54.184;18.680;2024-02-21T13:17:11;10.90;;;4.05;;
43457;SDS011;29046;54.184;18.680;2024-02-21T13:19:38;5.20;;;3.10;;
43457;SDS011;29046;54.184;18.680;2024-02-21T13:22:06;9.70;;;4.38;;
43457;SDS011;29046;54.184;18.680;2024-02-21T13:24:34;5.63;;;3.15;;
43457;SDS011;29046;54.184;18.680;2024-02-21T13:27:02;3.53;;;1.88;;
43457;SDS011;29046;54.184;18.680;2024-02-21T13:29:30;4.55;;;2.85;;
43457;SDS011;29046;54.184;18.680;2024-02-21T13:31:58;10.85;;;3.92;;
43457;SDS011;29046;54.184;18.680;2024-02-21T13:34:25;3.45;;;1.98;;
43457;SDS011;29046;54.184;18.680;2024-02-21T13:36:54;5.15;;;1.95;;
43457;SDS011;29046;54.184;18.680;2024-02-21T13:39:21;7.57;;;5.05;;
43457;SDS011;29046;54.184;18.680;2024-02-21T13:41:49;4.22;;;2.17;;
43457;SDS011;29046;54.184;18.680;2024-02-21T13:44:16;4.30;;;2.22;;
43457;SDS011;29046;54.184;18.680;2024-02-21T13:46:44;4.00;;;2.90;;
43457;SDS011;29046;54.184;18.680;2024-02-21T13:49:12;2.95;;;2.00;;
43457;SDS011;29046;54.184;18.680;2024-02-21T13:51:40;9.32;;;3.38;;
43457;SDS011;29046;54.184;18.680;2024-02-21T13:54:09;4.15;;;2.58;;
43457;SDS011;29046;54.184;18.680;2024-02-21T13:56:38;4.30;;;2.53;;
43457;SDS011;29046;54.184;18.680;2024-02-21T13:59:05;4.57;;;1.83;;
43457;SDS011;29046;54.184;18.680;2024-02-21T14:01:33;3.13;;;2.08;;
43457;SDS011;29046;54.184;18.680;2024-02-21T14:04:02;5.20;;;2.90;;
43457;SDS011;29046;54.184;18.680;2024-02-21T14:06:30;7.93;;;2.33;;
43457;SDS011;29046;54.184;18.680;2024-02-21T14:08:58;3.83;;;1.85;;
43457;SDS011;29046;54.184;18.680;2024-02-21T14:11:26;8.65;;;2.65;;
43457;SDS011;29046;54.184;18.680;2024-02-21T14:13:54;2.75;;;1.67;;
43457;SDS011;29046;54.184;18.680;2024-02-21T14:16:25;3.38;;;1.70;;
43457;SDS011;29046;54.184;18.680;2024-02-21T14:18:52;5.72;;;2.30;;
43457;SDS011;29046;54.184;18.680;2024-02-21T14:21:21;8.35;;;2.85;;
43457;SDS011;29046;54.184;18.680;2024-02-21T14:23:48;8.23;;;3.38;;
43457;SDS011;29046;54.184;18.680;2024-02-21T14:26:17;9.18;;;3.65;;
43457;SDS011;29046;54.184;18.680;2024-02-21T14:28:44;7.72;;;3.00;;
43457;SDS011;29046;54.184;18.680;2024-02-21T14:31:12;7.30;;;3.17;;
43457;SDS011;29046;54.184;18.680;2024-02-21T14:33:40;5.10;;;3.45;;
43457;SDS011;29046;54.184;18.680;2024-02-21T14:36:08;8.23;;;5.13;;
43457;SDS011;29046;54.184;18.680;2024-02-21T14:38:36;5.00;;;1.95;;
43457;SDS011;29046;54.184;18.680;2024-02-21T14:41:04;7.35;;;4.50;;
43457;SDS011;29046;54.184;18.680;2024-02-21T14:43:32;10.82;;;5.57;;
43457;SDS011;29046;54.184;18.680;2024-02-21T14:46:01;11.40;;;6.20;;